Alfred, Maine
Current Conditions -  °F | °C
As of 9:35 AM on Friday 24 Oct 2014 (Local Time) from KSFM Reporting Station
Overcast Overcast  
Wind Chill:   Ceiling: 900
Heat Index:   Visibility: 2mi
Dew Point:   Wind: 12mph
Humidity: 81%   Direction: 360°N
Pressure: 29.71"   Gusts: 18mph
Location:  43.48°N, 70.72°W
Report Text: KSFM 241335Z AUTO 36010G16KT 2SM BKN009 OVC016 08/05 A2971 RMK AO1 P0001
Loading
Personal Weather Stations






























Interactive Weather Map
Tropical Storm Tracking
New forecast layout! Learn more

10-Day Weather Forecast

Advertisements
Track Severe Weather on mobile